Time;durP1;ratioP1;P1;durP2;ratioP2;P2;SDS_P1;SDS_P2;PMS_P1;PMS_P2;Temp;Humidity;BMP_temperature;BMP_pressure;BME280_temperature;BME280_humidity;BME280_pressure;Samples;Min_cycle;Max_cycle;Signal;HPM_P1;HPM_P2
2022/11/19 00:00:16;;;;;;;1.58;1.48;;;;;;;;;;6180681;23;20028;-59
2022/11/19 00:02:43;;;;;;;1.67;1.52;;;;;;;;;;6176822;23;20024;-46
2022/11/19 00:05:17;;;;;;;1.55;1.33;;;;;;;;;;6179548;23;20479;-47
2022/11/19 00:07:44;;;;;;;3.25;1.20;;;;;;;;;;6177634;23;20125;-44
2022/11/19 00:10:19;;;;;;;4.93;1.30;;;;;;;;;;6177732;23;20028;-45
2022/11/19 00:12:55;;;;;;;1.50;1.40;;;;;;;;;;6178701;23;20359;-46
2022/11/19 00:15:28;;;;;;;1.52;1.42;;;;;;;;;;6179269;23;20041;-45
2022/11/19 00:17:57;;;;;;;1.30;1.20;;;;;;;;;;6177976;23;20025;-46
2022/11/19 00:20:24;;;;;;;1.88;1.48;;;;;;;;;;6179924;23;20017;-54
2022/11/19 00:22:57;;;;;;;1.15;1.05;;;;;;;;;;6155412;23;20021;-52
2022/11/19 00:25:26;;;;;;;2.45;1.35;;;;;;;;;;6178585;23;20021;-53
2022/11/19 00:27:59;;;;;;;1.50;1.20;;;;;;;;;;6177721;23;20035;-53
2022/11/19 00:30:26;;;;;;;1.80;1.23;;;;;;;;;;6179677;23;20023;-52
2022/11/19 00:33:14;;;;;;;1.85;1.30;;;;;;;;;;6177470;23;20035;-51
2022/11/19 00:35:47;;;;;;;1.70;1.00;;;;;;;;;;6179329;23;20105;-57
2022/11/19 00:38:14;;;;;;;1.30;1.20;;;;;;;;;;6152794;23;20025;-64
2022/11/19 00:40:55;;;;;;;1.08;0.93;;;;;;;;;;6179293;23;20021;-62
2022/11/19 00:43:48;;;;;;;1.20;1.08;;;;;;;;;;6165632;23;20032;-62
2022/11/19 00:46:39;;;;;;;1.08;0.98;;;;;;;;;;6179359;23;20031;-62
2022/11/19 00:49:06;;;;;;;1.25;0.93;;;;;;;;;;6178503;23;20023;-62
2022/11/19 00:51:41;;;;;;;1.70;1.20;;;;;;;;;;6179619;23;20096;-62
2022/11/19 00:54:08;;;;;;;1.48;1.25;;;;;;;;;;6177167;23;20101;-55
2022/11/19 00:56:35;;;;;;;3.50;1.17;;;;;;;;;;6179497;23;20562;-62
2022/11/19 00:59:08;;;;;;;1.75;0.98;;;;;;;;;;6177792;23;20054;-64
2022/11/19 01:01:35;;;;;;;2.60;1.25;;;;;;;;;;6178471;23;20017;-64
2022/11/19 01:04:09;;;;;;;2.65;1.20;;;;;;;;;;6178922;23;20471;-64
2022/11/19 01:06:36;;;;;;;1.52;1.23;;;;;;;;;;6178538;23;20418;-62
2022/11/19 01:09:04;;;;;;;1.35;1.17;;;;;;;;;;6177806;23;20064;-64
2022/11/19 01:11:38;;;;;;;1.27;0.90;;;;;;;;;;6178659;23;20100;-64
2022/11/19 01:14:05;;;;;;;1.10;1.00;;;;;;;;;;6179458;23;20029;-62
2022/11/19 01:16:40;;;;;;;1.77;1.00;;;;;;;;;;6178945;23;20027;-60
2022/11/19 01:19:08;;;;;;;1.85;1.50;;;;;;;;;;6177173;23;20124;-61
2022/11/19 01:21:43;;;;;;;1.40;1.00;;;;;;;;;;6178793;23;20036;-60
2022/11/19 01:24:10;;;;;;;1.25;1.15;;;;;;;;;;6177939;23;20017;-61
2022/11/19 01:26:44;;;;;;;1.88;1.30;;;;;;;;;;6179026;23;20378;-60
2022/11/19 01:29:12;;;;;;;1.92;1.00;;;;;;;;;;6178027;23;20028;-61
2022/11/19 01:31:47;;;;;;;1.30;0.82;;;;;;;;;;6178921;23;20537;-61
2022/11/19 01:34:14;;;;;;;1.80;1.10;;;;;;;;;;6178927;23;20380;-54
2022/11/19 01:36:41;;;;;;;0.70;0.70;;;;;;;;;;6177844;23;20025;-64
2022/11/19 01:39:14;;;;;;;1.00;0.80;;;;;;;;;;6177122;23;20100;-64
2022/11/19 01:41:48;;;;;;;1.08;0.98;;;;;;;;;;6178976;23;20485;-64
2022/11/19 01:44:52;;;;;;;2.00;0.95;;;;;;;;;;6176091;23;20024;-64
2022/11/19 01:47:40;;;;;;;0.80;0.80;;;;;;;;;;4785357;27;8383565;-64
2022/11/19 01:50:14;;;;;;;1.53;0.87;;;;;;;;;;5069949;28;20049;-64
2022/11/19 01:52:42;;;;;;;4.28;0.95;;;;;;;;;;5058658;28;20052;-50
2022/11/19 01:55:09;;;;;;;1.08;0.85;;;;;;;;;;5059368;28;20049;-53
2022/11/19 01:57:43;;;;;;;1.02;0.93;;;;;;;;;;5066103;28;20048;-53
2022/11/19 02:00:11;;;;;;;1.48;1.10;;;;;;;;;;5061102;28;20045;-53
2022/11/19 02:02:44;;;;;;;1.23;0.95;;;;;;;;;;5060579;28;20050;-51
2022/11/19 02:05:12;;;;;;;1.80;1.25;;;;;;;;;;5059088;28;20045;-54
2022/11/19 02:07:42;;;;;;;1.48;1.08;;;;;;;;;;5059029;28;20049;-54
2022/11/19 02:10:16;;;;;;;1.58;1.10;;;;;;;;;;5060618;28;20051;-62
2022/11/19 02:12:50;;;;;;;1.20;1.00;;;;;;;;;;5059342;28;20492;-55
2022/11/19 02:15:27;;;;;;;1.20;1.10;;;;;;;;;;5065100;28;20037;-61
2022/11/19 02:18:16;;;;;;;1.85;1.20;;;;;;;;;;5060220;28;20504;-60
2022/11/19 02:21:09;;;;;;;0.85;0.80;;;;;;;;;;5063014;28;20053;-61
2022/11/19 02:23:45;;;;;;;0.80;0.80;;;;;;;;;;5062770;28;20044;-61
2022/11/19 02:26:19;;;;;;;1.70;1.15;;;;;;;;;;5060681;28;20058;-60
2022/11/19 02:28:55;;;;;;;1.38;1.08;;;;;;;;;;5065966;28;20040;-60
2022/11/19 02:31:47;;;;;;;1.45;1.17;;;;;;;;;;5063023;28;20041;-56
2022/11/19 02:34:18;;;;;;;1.80;1.25;;;;;;;;;;5060301;28;20508;-61
2022/11/19 02:36:52;;;;;;;1.10;0.80;;;;;;;;;;5058226;28;20049;-60
2022/11/19 02:39:45;;;;;;;1.10;0.98;;;;;;;;;;5061857;28;20050;-60
2022/11/19 02:42:34;;;;;;;1.58;1.02;;;;;;;;;;5059737;28;20072;-61
2022/11/19 02:45:06;;;;;;;1.83;1.08;;;;;;;;;;5057371;28;20144;-61
2022/11/19 02:47:49;;;;;;;2.22;0.75;;;;;;;;;;5046668;28;20056;-60
2022/11/19 02:50:17;;;;;;;1.38;0.95;;;;;;;;;;5028110;28;20059;-51
2022/11/19 02:52:51;;;;;;;0.98;0.98;;;;;;;;;;5043008;28;20099;-45
2022/11/19 02:55:25;;;;;;;1.98;1.23;;;;;;;;;;5041676;28;20055;-44
2022/11/19 02:57:59;;;;;;;1.90;0.95;;;;;;;;;;5049466;28;20044;-46
2022/11/19 03:06:21;;;;;;;1.65;1.10;;;;;;;;;;5040925;28;20520;-44
2022/11/19 03:08:55;;;;;;;1.27;1.08;;;;;;;;;;5047573;28;20059;-62
2022/11/19 03:11:30;;;;;;;1.15;0.90;;;;;;;;;;5046977;28;20492;-62
2022/11/19 03:16:56;;;;;;;1.35;1.02;;;;;;;;;;5050121;28;20052;-62
2022/11/19 03:19:23;;;;;;;1.05;0.90;;;;;;;;;;5045943;28;20060;-61
2022/11/19 03:22:17;;;;;;;1.15;0.82;;;;;;;;;;5048407;28;20049;-60
2022/11/19 03:24:46;;;;;;;0.93;0.85;;;;;;;;;;5045177;28;20049;-61
2022/11/19 03:27:29;;;;;;;3.88;1.02;;;;;;;;;;5047649;28;20522;-60
2022/11/19 03:29:58;;;;;;;1.10;0.98;;;;;;;;;;5047859;28;20041;-64
2022/11/19 03:32:35;;;;;;;2.28;1.20;;;;;;;;;;5046879;28;20045;-64
2022/11/19 03:35:06;;;;;;;1.23;0.93;;;;;;;;;;5045852;28;20056;-64
2022/11/19 03:37:42;;;;;;;1.30;1.20;;;;;;;;;;5042913;28;20045;-64
2022/11/19 03:40:17;;;;;;;1.17;1.08;;;;;;;;;;5045326;28;20045;-64
2022/11/19 03:42:53;;;;;;;0.77;0.77;;;;;;;;;;5048730;28;20053;-64
2022/11/19 03:45:28;;;;;;;1.73;1.15;;;;;;;;;;5045105;28;20544;-64
2022/11/19 03:48:10;;;;;;;0.93;0.82;;;;;;;;;;5053174;28;20469;-51
2022/11/19 03:50:55;;;;;;;2.60;1.00;;;;;;;;;;5063946;28;20059;-59
2022/11/19 03:53:29;;;;;;;0.80;0.80;;;;;;;;;;5062275;28;20052;-60
2022/11/19 03:56:01;;;;;;;2.88;1.23;;;;;;;;;;5062789;28;20050;-59
2022/11/19 03:58:33;;;;;;;0.95;0.85;;;;;;;;;;5065969;28;20049;-59
2022/11/19 04:01:07;;;;;;;0.77;0.70;;;;;;;;;;5065410;28;20056;-60
2022/11/19 04:03:34;;;;;;;1.42;1.00;;;;;;;;;;5070851;28;20040;-60
2022/11/19 04:06:09;;;;;;;2.30;1.05;;;;;;;;;;5065306;28;20064;-59
2022/11/19 04:08:36;;;;;;;2.70;0.95;;;;;;;;;;5067420;28;20051;-52
2022/11/19 04:11:03;;;;;;;1.85;1.13;;;;;;;;;;5062149;28;20054;-50
2022/11/19 04:13:36;;;;;;;0.60;0.60;;;;;;;;;;5064232;28;20154;-53
2022/11/19 04:16:03;;;;;;;0.70;0.55;;;;;;;;;;5064838;28;20525;-52
2022/11/19 04:18:37;;;;;;;1.88;1.10;;;;;;;;;;5068303;28;20071;-50
2022/11/19 04:21:04;;;;;;;4.22;1.00;;;;;;;;;;5060756;28;20044;-52
2022/11/19 04:23:31;;;;;;;0.80;0.73;;;;;;;;;;5062467;28;20128;-57
2022/11/19 04:26:05;;;;;;;1.17;0.90;;;;;;;;;;5064639;28;20164;-62
2022/11/19 04:28:32;;;;;;;1.77;0.98;;;;;;;;;;5064079;28;20048;-55
2022/11/19 04:31:06;;;;;;;1.80;0.88;;;;;;;;;;5061678;28;20052;-54
2022/11/19 04:33:33;;;;;;;1.85;1.23;;;;;;;;;;5069010;28;20416;-51
2022/11/19 04:36:00;;;;;;;1.83;0.70;;;;;;;;;;5059572;28;20055;-53
2022/11/19 04:38:34;;;;;;;1.52;1.00;;;;;;;;;;5067979;28;20048;-53
2022/11/19 04:41:01;;;;;;;2.70;1.00;;;;;;;;;;5064804;28;20041;-51
2022/11/19 04:43:35;;;;;;;1.05;1.05;;;;;;;;;;5058492;28;20047;-60
2022/11/19 04:46:09;;;;;;;1.80;0.90;;;;;;;;;;5066668;28;20055;-52
2022/11/19 04:48:42;;;;;;;0.77;0.75;;;;;;;;;;5068376;28;20047;-52
2022/11/19 04:51:09;;;;;;;2.40;1.00;;;;;;;;;;5068235;28;20495;-50
2022/11/19 04:53:37;;;;;;;1.27;1.10;;;;;;;;;;5068924;28;20053;-51
2022/11/19 04:56:11;;;;;;;2.10;1.00;;;;;;;;;;5068528;28;20063;-50
2022/11/19 04:58:38;;;;;;;1.45;0.98;;;;;;;;;;5061397;28;20040;-49
2022/11/19 05:01:12;;;;;;;2.72;1.08;;;;;;;;;;5070389;28;20422;-51
2022/11/19 05:03:39;;;;;;;1.00;0.90;;;;;;;;;;5065362;28;20101;-57
2022/11/19 05:06:07;;;;;;;1.25;1.10;;;;;;;;;;5067091;28;20059;-64
2022/11/19 05:08:41;;;;;;;1.17;1.08;;;;;;;;;;5059614;28;20187;-64
2022/11/19 05:11:08;;;;;;;1.45;1.00;;;;;;;;;;5066563;28;20492;-64
2022/11/19 05:13:42;;;;;;;1.13;0.93;;;;;;;;;;5067132;28;20044;-64
2022/11/19 05:16:09;;;;;;;2.63;1.30;;;;;;;;;;5063575;28;20055;-64
2022/11/19 05:18:36;;;;;;;2.67;1.00;;;;;;;;;;5064677;28;20048;-64
2022/11/19 05:21:10;;;;;;;1.38;1.00;;;;;;;;;;5066545;28;20056;-62
2022/11/19 05:23:37;;;;;;;2.53;1.35;;;;;;;;;;5069635;28;20134;-61
2022/11/19 05:26:05;;;;;;;1.35;1.13;;;;;;;;;;5061065;28;20045;-60
2022/11/19 05:28:39;;;;;;;1.70;1.30;;;;;;;;;;5066854;28;20048;-61
2022/11/19 05:31:07;;;;;;;4.30;1.00;;;;;;;;;;5067497;28;20066;-60
2022/11/19 05:33:41;;;;;;;1.48;1.02;;;;;;;;;;5065456;28;20911;-61
2022/11/19 05:36:08;;;;;;;1.27;1.05;;;;;;;;;;5065015;28;20132;-61
2022/11/19 05:38:36;;;;;;;3.53;1.15;;;;;;;;;;5067870;28;20055;-60
2022/11/19 05:41:10;;;;;;;1.52;1.20;;;;;;;;;;5066932;28;20055;-53
2022/11/19 05:43:37;;;;;;;6.45;1.02;;;;;;;;;;5066375;28;20063;-56
2022/11/19 05:46:05;;;;;;;1.13;1.02;;;;;;;;;;5062188;28;20052;-57
2022/11/19 05:48:45;;;;;;;1.27;1.10;;;;;;;;;;5064330;28;20048;-56
2022/11/19 05:51:13;;;;;;;1.73;1.20;;;;;;;;;;5065146;28;20397;-56
2022/11/19 05:53:47;;;;;;;1.77;1.30;;;;;;;;;;5063762;28;20051;-58
2022/11/19 05:56:14;;;;;;;1.63;1.20;;;;;;;;;;5066076;28;20066;-60
2022/11/19 05:58:41;;;;;;;3.92;1.15;;;;;;;;;;5068614;28;20063;-48
2022/11/19 06:01:15;;;;;;;3.58;1.40;;;;;;;;;;5067828;28;20052;-61
2022/11/19 06:03:42;;;;;;;1.75;1.02;;;;;;;;;;5060086;28;20103;-61
2022/11/19 06:06:16;;;;;;;1.58;1.17;;;;;;;;;;5065231;28;20053;-58
2022/11/19 06:08:50;;;;;;;1.50;1.17;;;;;;;;;;5064893;28;20388;-55
2022/11/19 06:14:10;;;;;;;2.85;1.30;;;;;;;;;;5064841;28;20053;-59
2022/11/19 06:16:44;;;;;;;1.50;1.20;;;;;;;;;;5061963;28;20838;-59
2022/11/19 06:19:11;;;;;;;3.50;1.27;;;;;;;;;;5061449;28;20412;-50
2022/11/19 06:21:39;;;;;;;1.33;1.20;;;;;;;;;;5060751;28;20504;-63
2022/11/19 06:24:13;;;;;;;2.33;1.50;;;;;;;;;;5070219;28;20048;-62
2022/11/19 06:26:40;;;;;;;2.22;1.40;;;;;;;;;;5073501;28;20047;-62
2022/11/19 06:29:14;;;;;;;1.95;1.40;;;;;;;;;;5067470;28;20041;-62
2022/11/19 06:31:41;;;;;;;2.70;1.30;;;;;;;;;;5062213;28;20071;-62
2022/11/19 06:34:09;;;;;;;1.67;1.15;;;;;;;;;;5067517;28;20055;-62
2022/11/19 06:36:43;;;;;;;1.50;1.40;;;;;;;;;;5065811;28;20048;-59
2022/11/19 06:39:16;;;;;;;2.15;1.10;;;;;;;;;;5069386;28;20114;-61
2022/11/19 06:41:50;;;;;;;3.30;1.48;;;;;;;;;;5069595;28;20055;-45
2022/11/19 06:44:17;;;;;;;1.35;1.13;;;;;;;;;;5066266;28;20053;-47
2022/11/19 06:47:04;;;;;;;1.70;1.27;;;;;;;;;;5064929;28;20059;-45
2022/11/19 06:49:31;;;;;;;1.98;1.08;;;;;;;;;;5066417;28;20071;-47
2022/11/19 06:52:06;;;;;;;2.22;1.10;;;;;;;;;;5068136;28;20105;-45
2022/11/19 06:54:33;;;;;;;1.25;1.15;;;;;;;;;;5066134;28;20135;-46
2022/11/19 06:57:04;;;;;;;1.75;1.20;;;;;;;;;;5074534;28;20056;-55
2022/11/19 06:59:45;;;;;;;1.80;1.27;;;;;;;;;;5067069;28;20048;-61
2022/11/19 07:02:12;;;;;;;1.58;1.30;;;;;;;;;;5064780;28;20049;-61
2022/11/19 07:04:48;;;;;;;5.10;1.70;;;;;;;;;;5066717;28;20048;-61
2022/11/19 07:07:15;;;;;;;1.33;1.10;;;;;;;;;;5065641;28;20081;-62
2022/11/19 07:09:42;;;;;;;1.60;1.10;;;;;;;;;;5068636;28;20134;-61
2022/11/19 07:12:16;;;;;;;1.88;1.27;;;;;;;;;;5070343;28;20060;-61
2022/11/19 07:14:43;;;;;;;4.57;1.33;;;;;;;;;;5073612;28;20059;-61
2022/11/19 07:17:17;;;;;;;1.83;0.90;;;;;;;;;;5067526;28;20056;-45
2022/11/19 07:19:44;;;;;;;1.60;1.20;;;;;;;;;;5062977;28;20048;-64
2022/11/19 07:22:11;;;;;;;1.73;1.10;;;;;;;;;;5069960;28;20500;-64
2022/11/19 07:24:45;;;;;;;3.10;1.20;;;;;;;;;;5064977;28;20183;-63
2022/11/19 07:27:12;;;;;;;1.00;0.90;;;;;;;;;;5064672;28;20036;-64
2022/11/19 07:29:46;;;;;;;3.13;1.10;;;;;;;;;;5060482;28;20079;-64
2022/11/19 07:32:20;;;;;;;1.73;1.10;;;;;;;;;;5067435;28;20055;-63
2022/11/19 07:34:54;;;;;;;1.10;1.00;;;;;;;;;;5064873;28;20144;-56
2022/11/19 07:37:21;;;;;;;1.73;0.82;;;;;;;;;;5066779;28;20059;-47
2022/11/19 07:39:48;;;;;;;1.92;1.30;;;;;;;;;;5068766;28;20067;-59
2022/11/19 07:45:09;;;;;;;4.35;1.15;;;;;;;;;;5062485;28;20059;-59
2022/11/19 07:47:56;;;;;;;1.55;0.98;;;;;;;;;;5064376;28;20063;-59
2022/11/19 07:50:30;;;;;;;3.50;1.30;;;;;;;;;;5065281;28;20045;-58
2022/11/19 07:53:04;;;;;;;2.75;1.23;;;;;;;;;;5064687;28;20045;-60
2022/11/19 07:55:31;;;;;;;1.33;1.23;;;;;;;;;;5072093;28;20511;-56
2022/11/19 07:57:59;;;;;;;8.35;1.20;;;;;;;;;;5068385;28;20139;-51
2022/11/19 08:00:33;;;;;;;1.15;1.02;;;;;;;;;;5069799;28;20049;-51
2022/11/19 08:03:01;;;;;;;2.00;1.10;;;;;;;;;;5064425;28;20056;-55
2022/11/19 08:05:37;;;;;;;2.85;1.27;;;;;;;;;;5066127;28;20047;-53
2022/11/19 08:08:05;;;;;;;3.80;1.25;;;;;;;;;;5065715;28;20068;-53
2022/11/19 08:10:32;;;;;;;1.35;1.20;;;;;;;;;;5063771;28;20423;-53
2022/11/19 08:13:06;;;;;;;1.48;1.10;;;;;;;;;;5066781;28;20144;-52
2022/11/19 08:15:33;;;;;;;2.97;1.20;;;;;;;;;;5066166;28;20055;-51
2022/11/19 08:18:14;;;;;;;3.30;1.20;;;;;;;;;;5069170;28;20074;-64
2022/11/19 08:20:47;;;;;;;1.30;1.10;;;;;;;;;;5064412;28;20052;-64
2022/11/19 08:23:23;;;;;;;1.90;1.02;;;;;;;;;;5063544;28;20051;-64
2022/11/19 08:25:51;;;;;;;3.40;1.20;;;;;;;;;;5064514;28;20076;-64
2022/11/19 08:28:19;;;;;;;4.13;1.02;;;;;;;;;;5061841;28;20068;-64
2022/11/19 08:30:52;;;;;;;1.77;1.30;;;;;;;;;;5068177;28;20044;-64
2022/11/19 08:33:19;;;;;;;3.10;1.70;;;;;;;;;;5051822;28;20059;-60
2022/11/19 08:35:56;;;;;;;4.78;1.70;;;;;;;;;;5065301;28;20048;-64
2022/11/19 08:38:23;;;;;;;2.47;1.52;;;;;;;;;;5060423;28;20052;-64
2022/11/19 08:40:51;;;;;;;1.83;1.20;;;;;;;;;;5056195;28;20400;-64
2022/11/19 08:43:25;;;;;;;1.10;0.90;;;;;;;;;;5068082;28;20049;-64
2022/11/19 08:45:53;;;;;;;2.65;1.70;;;;;;;;;;5060717;28;20043;-64
2022/11/19 08:48:20;;;;;;;1.75;1.23;;;;;;;;;;5057055;28;20060;-64
2022/11/19 08:50:54;;;;;;;2.78;1.40;;;;;;;;;;5062615;28;20047;-52
2022/11/19 08:53:28;;;;;;;2.13;1.20;;;;;;;;;;5061089;28;20127;-56
2022/11/19 08:56:02;;;;;;;1.60;1.10;;;;;;;;;;5064890;28;20055;-61
2022/11/19 08:58:29;;;;;;;1.50;1.10;;;;;;;;;;5064086;28;20062;-61
2022/11/19 09:01:13;;;;;;;3.35;1.05;;;;;;;;;;5066279;28;20496;-61
2022/11/19 09:03:40;;;;;;;3.20;1.20;;;;;;;;;;5068237;28;20052;-61
2022/11/19 09:06:14;;;;;;;1.88;1.10;;;;;;;;;;5066629;28;20044;-61
2022/11/19 09:08:41;;;;;;;2.58;1.50;;;;;;;;;;5062053;28;20045;-61
2022/11/19 09:11:16;;;;;;;1.60;1.13;;;;;;;;;;5066095;28;20048;-46
2022/11/19 09:13:43;;;;;;;1.35;1.17;;;;;;;;;;5063636;28;20139;-60
2022/11/19 09:16:11;;;;;;;1.98;1.15;;;;;;;;;;5067296;28;20055;-60
2022/11/19 09:18:45;;;;;;;2.45;1.27;;;;;;;;;;5067632;28;20044;-60
2022/11/19 09:21:13;;;;;;;2.17;1.38;;;;;;;;;;5063266;28;20046;-60
2022/11/19 09:23:46;;;;;;;3.38;1.08;;;;;;;;;;5063874;28;20053;-59
2022/11/19 09:26:14;;;;;;;2.40;1.30;;;;;;;;;;5058974;28;20159;-59
2022/11/19 09:28:42;;;;;;;3.20;1.38;;;;;;;;;;5060579;28;20048;-59
2022/11/19 09:31:17;;;;;;;2.30;1.10;;;;;;;;;;5067806;28;20055;-52
2022/11/19 09:33:46;;;;;;;2.50;1.20;;;;;;;;;;5066355;28;20051;-63
2022/11/19 09:36:20;;;;;;;3.33;1.20;;;;;;;;;;5063435;28;20503;-62
2022/11/19 09:38:47;;;;;;;1.80;1.02;;;;;;;;;;5057031;28;20041;-63
2022/11/19 09:41:17;;;;;;;4.07;1.20;;;;;;;;;;5062567;28;20168;-63
2022/11/19 09:43:57;;;;;;;1.45;1.20;;;;;;;;;;5066966;28;20057;-63
2022/11/19 09:46:24;;;;;;;2.88;1.05;;;;;;;;;;5063788;28;20048;-63
2022/11/19 09:49:11;;;;;;;1.27;1.10;;;;;;;;;;5064440;28;20048;-52
2022/11/19 09:51:41;;;;;;;1.90;1.13;;;;;;;;;;5067843;28;20058;-46
2022/11/19 09:54:16;;;;;;;1.15;1.00;;;;;;;;;;5060798;28;20054;-50
2022/11/19 09:56:45;;;;;;;1.73;1.20;;;;;;;;;;5062995;28;20101;-50
2022/11/19 09:59:19;;;;;;;3.50;1.33;;;;;;;;;;5059923;28;20090;-45
2022/11/19 10:01:54;;;;;;;1.67;1.40;;;;;;;;;;5063052;28;20048;-45
2022/11/19 10:04:24;;;;;;;2.22;1.25;;;;;;;;;;5062805;28;20521;-48
2022/11/19 10:07:10;;;;;;;1.63;1.00;;;;;;;;;;5069358;28;20072;-49
2022/11/19 10:09:52;;;;;;;1.95;1.23;;;;;;;;;;5065890;28;20787;-63
2022/11/19 10:12:44;;;;;;;1.63;1.00;;;;;;;;;;5064634;28;20063;-46
2022/11/19 10:15:23;;;;;;;2.42;1.45;;;;;;;;;;5073197;28;20044;-46
2022/11/19 10:18:08;;;;;;;1.45;1.13;;;;;;;;;;5070218;28;20109;-44
2022/11/19 10:20:42;;;;;;;2.78;1.13;;;;;;;;;;5069286;28;20047;-48
2022/11/19 10:23:17;;;;;;;3.10;1.10;;;;;;;;;;5065659;28;20056;-48
2022/11/19 10:25:46;;;;;;;0.98;0.73;;;;;;;;;;5068407;28;20047;-58
2022/11/19 10:28:15;;;;;;;2.70;1.13;;;;;;;;;;5066689;28;20047;-61
2022/11/19 10:30:50;;;;;;;2.13;1.10;;;;;;;;;;5062047;28;20041;-48
2022/11/19 10:33:23;;;;;;;1.80;0.93;;;;;;;;;;5064798;28;20503;-48
2022/11/19 10:36:00;;;;;;;3.53;1.65;;;;;;;;;;5056077;28;20053;-46
2022/11/19 10:38:32;;;;;;;1.65;1.33;;;;;;;;;;5067436;28;20527;-46
2022/11/19 10:41:12;;;;;;;1.63;1.10;;;;;;;;;;5065695;28;20059;-48
2022/11/19 10:43:47;;;;;;;3.40;1.30;;;;;;;;;;5069591;28;20143;-47
2022/11/19 10:46:23;;;;;;;1.15;1.02;;;;;;;;;;5067757;28;20052;-56
2022/11/19 10:49:04;;;;;;;2.42;1.75;;;;;;;;;;5053006;28;20521;-63
2022/11/19 10:51:41;;;;;;;2.70;1.25;;;;;;;;;;5066091;28;20056;-63
2022/11/19 10:54:23;;;;;;;2.00;1.17;;;;;;;;;;5044865;28;20219;-63
2022/11/19 10:56:58;;;;;;;1.95;1.15;;;;;;;;;;5073218;28;20055;-61
2022/11/19 10:59:26;;;;;;;3.03;1.02;;;;;;;;;;5064660;28;20049;-63
2022/11/19 11:02:02;;;;;;;1.83;1.08;;;;;;;;;;5070752;28;20075;-63
2022/11/19 11:04:29;;;;;;;1.90;1.05;;;;;;;;;;5069863;28;20041;-59
2022/11/19 11:07:04;;;;;;;1.55;1.20;;;;;;;;;;5065937;28;20048;-56
2022/11/19 11:09:33;;;;;;;3.05;1.13;;;;;;;;;;5068154;28;20105;-55
2022/11/19 11:15:00;;;;;;;1.20;0.90;;;;;;;;;;5068817;28;20047;-55
2022/11/19 11:17:35;;;;;;;2.33;1.40;;;;;;;;;;5064610;28;20045;-51
2022/11/19 11:20:06;;;;;;;1.38;1.00;;;;;;;;;;5070306;28;20044;-50
2022/11/19 11:22:40;;;;;;;1.90;1.30;;;;;;;;;;5070166;28;20047;-59
2022/11/19 11:25:21;;;;;;;1.65;1.10;;;;;;;;;;5068475;28;20052;-59
2022/11/19 11:28:14;;;;;;;1.40;1.07;;;;;;;;;;5065961;28;20040;-61
2022/11/19 11:30:56;;;;;;;2.40;1.30;;;;;;;;;;5064485;28;20286;-61
2022/11/19 11:33:32;;;;;;;1.27;1.00;;;;;;;;;;5066290;28;20117;-61
2022/11/19 11:36:06;;;;;;;1.30;0.82;;;;;;;;;;5065754;28;20565;-61
2022/11/19 11:38:44;;;;;;;1.35;1.02;;;;;;;;;;5071467;28;20128;-61
2022/11/19 11:41:21;;;;;;;1.33;0.90;;;;;;;;;;5067190;28;20555;-61
2022/11/19 11:44:19;;;;;;;1.80;1.30;;;;;;;;;;5065896;28;20056;-53
2022/11/19 11:46:47;;;;;;;1.40;1.00;;;;;;;;;;5066604;28;20989;-52
2022/11/19 11:49:31;;;;;;;2.13;1.02;;;;;;;;;;5069393;28;20040;-52
2022/11/19 11:52:01;;;;;;;1.55;1.15;;;;;;;;;;5065221;28;20047;-54
2022/11/19 11:54:36;;;;;;;1.75;1.05;;;;;;;;;;5069839;28;20048;-52
2022/11/19 11:57:20;;;;;;;1.70;1.23;;;;;;;;;;5064434;28;20102;-53
2022/11/19 11:59:54;;;;;;;1.65;1.40;;;;;;;;;;5066690;28;20418;-50
2022/11/19 12:02:21;;;;;;;;;;;;;;;;;;5069121;28;20398;-45
2022/11/19 12:04:56;;;;;;;2.13;1.40;;;;;;;;;;5068737;28;19928;-46
2022/11/19 12:07:29;;;;;;;1.50;1.10;;;;;;;;;;5069424;28;20050;-47
2022/11/19 12:10:09;;;;;;;5.60;1.30;;;;;;;;;;5067759;28;20040;-48
2022/11/19 12:12:46;;;;;;;4.50;1.10;;;;;;;;;;5067095;28;20428;-46
2022/11/19 12:15:32;;;;;;;1.77;1.20;;;;;;;;;;5050383;28;20048;-47
2022/11/19 12:18:22;;;;;;;2.15;1.00;;;;;;;;;;5064075;28;20051;-45
2022/11/19 12:21:09;;;;;;;1.40;1.05;;;;;;;;;;5034256;28;20043;-56
2022/11/19 12:23:43;;;;;;;1.63;1.13;;;;;;;;;;5067392;28;20123;-51
2022/11/19 12:26:33;;;;;;;2.33;1.08;;;;;;;;;;5065490;28;20044;-55
2022/11/19 12:29:12;;;;;;;3.08;1.27;;;;;;;;;;5071057;28;20064;-53
2022/11/19 12:31:47;;;;;;;2.03;1.23;;;;;;;;;;5061801;28;20500;-55
2022/11/19 12:34:14;;;;;;;1.88;1.23;;;;;;;;;;5066656;28;20040;-54
2022/11/19 12:36:56;;;;;;;1.05;0.95;;;;;;;;;;5066422;28;20067;-51
2022/11/19 12:39:47;;;;;;;2.45;1.48;;;;;;;;;;5062898;28;20054;-55
2022/11/19 12:42:18;;;;;;;1.13;1.02;;;;;;;;;;5064415;28;20053;-63
2022/11/19 12:45:02;;;;;;;1.15;0.70;;;;;;;;;;5069850;28;20123;-44
2022/11/19 12:47:48;;;;;;;0.90;0.67;;;;;;;;;;5063160;28;22009;-45
2022/11/19 12:50:32;;;;;;;1.42;1.02;;;;;;;;;;5059270;28;20044;-49
2022/11/19 12:53:11;;;;;;;3.15;0.88;;;;;;;;;;5062933;28;20463;-48
2022/11/19 12:56:01;;;;;;;1.60;0.93;;;;;;;;;;5062459;28;20926;-45
2022/11/19 12:58:34;;;;;;;1.80;1.10;;;;;;;;;;5064784;28;20499;-55
2022/11/19 13:01:17;;;;;;;1.38;0.82;;;;;;;;;;5064930;28;20119;-53
2022/11/19 13:03:59;;;;;;;1.15;0.85;;;;;;;;;;5062403;28;20056;-50
2022/11/19 13:06:55;;;;;;;1.75;1.10;;;;;;;;;;5065472;28;20055;-54
2022/11/19 13:09:25;;;;;;;2.85;1.30;;;;;;;;;;5069951;28;20048;-56
2022/11/19 13:12:02;;;;;;;1.27;0.88;;;;;;;;;;5061993;28;20461;-51
2022/11/19 13:14:46;;;;;;;1.38;1.00;;;;;;;;;;5062380;28;20522;-54
2022/11/19 13:17:43;;;;;;;1.15;0.90;;;;;;;;;;5052603;28;20040;-45
2022/11/19 13:20:17;;;;;;;1.15;1.05;;;;;;;;;;5053837;28;20121;-59
2022/11/19 13:22:57;;;;;;;1.20;1.00;;;;;;;;;;5061776;28;21689;-45
2022/11/19 13:25:42;;;;;;;3.83;1.15;;;;;;;;;;5059475;28;20606;-47
2022/11/19 13:28:29;;;;;;;2.08;1.13;;;;;;;;;;5055041;28;20063;-47
2022/11/19 13:31:00;;;;;;;2.47;1.00;;;;;;;;;;5060401;28;20466;-47
2022/11/19 13:33:45;;;;;;;3.80;0.70;;;;;;;;;;5063592;28;20053;-47
2022/11/19 13:36:18;;;;;;;2.50;0.93;;;;;;;;;;5061369;28;20318;-54
2022/11/19 13:38:58;;;;;;;1.58;1.48;;;;;;;;;;5053669;28;20048;-63
2022/11/19 13:41:30;;;;;;;1.73;1.20;;;;;;;;;;5050042;28;20703;-59
2022/11/19 13:46:50;;;;;;;2.10;0.93;;;;;;;;;;5060029;28;20514;-59
2022/11/19 13:49:33;;;;;;;1.48;1.08;;;;;;;;;;5032439;28;20060;-59
2022/11/19 13:52:03;;;;;;;2.35;1.42;;;;;;;;;;5038550;28;20808;-59
2022/11/19 13:54:37;;;;;;;3.03;1.13;;;;;;;;;;5026599;28;20719;-59
2022/11/19 13:57:06;;;;;;;1.85;1.08;;;;;;;;;;5024452;28;20554;-60
2022/11/19 13:59:36;;;;;;;3.08;1.27;;;;;;;;;;5019039;28;20050;-60
2022/11/19 14:02:20;;;;;;;2.78;0.98;;;;;;;;;;5023677;28;20051;-60
2022/11/19 14:04:52;;;;;;;1.45;1.00;;;;;;;;;;5024470;28;20056;-60
2022/11/19 14:07:33;;;;;;;1.38;1.27;;;;;;;;;;5022199;28;20717;-59
2022/11/19 14:10:06;;;;;;;2.65;0.98;;;;;;;;;;5044229;28;20512;-58
2022/11/19 14:12:43;;;;;;;2.67;0.85;;;;;;;;;;5036411;28;20053;-59
2022/11/19 14:27:22;;;;;;;4.32;1.30;;;;;;;;;;5041303;28;20057;-63
2022/11/19 14:29:49;;;;;;;2.10;1.30;;;;;;;;;;5041926;28;20055;-62
2022/11/19 14:32:31;;;;;;;2.95;1.35;;;;;;;;;;5042104;28;20131;-63
2022/11/19 14:35:01;;;;;;;4.10;0.98;;;;;;;;;;5045870;28;20078;-46
2022/11/19 14:37:46;;;;;;;2.28;1.10;;;;;;;;;;5042728;28;20500;-63
2022/11/19 14:40:27;;;;;;;1.50;1.10;;;;;;;;;;5037429;28;20137;-62
2022/11/19 14:46:02;;;;;;;2.53;1.30;;;;;;;;;;5045886;28;20040;-62
2022/11/19 14:48:54;;;;;;;1.50;0.93;;;;;;;;;;5053333;28;20435;-62
2022/11/19 14:51:30;;;;;;;4.20;1.30;;;;;;;;;;5060001;28;20106;-63
2022/11/19 14:54:04;;;;;;;5.18;1.73;;;;;;;;;;5066319;28;20127;-58
2022/11/19 14:56:32;;;;;;;2.67;1.20;;;;;;;;;;5062184;28;20047;-63
2022/11/19 14:59:15;;;;;;;4.18;1.30;;;;;;;;;;5063193;28;20049;-63
2022/11/19 15:02:01;;;;;;;4.55;1.40;;;;;;;;;;5067716;28;20143;-63
2022/11/19 15:04:43;;;;;;;1.77;1.10;;;;;;;;;;5065656;28;20040;-63
2022/11/19 15:07:11;;;;;;;1.98;1.38;;;;;;;;;;5066390;28;20136;-63
2022/11/19 15:10:04;;;;;;;3.05;1.33;;;;;;;;;;5062966;28;20403;-62
2022/11/19 15:12:43;;;;;;;2.30;1.38;;;;;;;;;;5071843;28;20041;-45
2022/11/19 15:15:21;;;;;;;2.00;1.38;;;;;;;;;;5068756;28;20059;-59
2022/11/19 15:18:09;;;;;;;3.63;1.42;;;;;;;;;;5065760;28;20054;-57
2022/11/19 15:21:21;;;;;;;2.20;1.38;;;;;;;;;;5018779;28;20056;-59
2022/11/19 15:23:57;;;;;;;2.25;1.30;;;;;;;;;;4967912;28;20088;-60
2022/11/19 15:26:44;;;;;;;1.77;1.30;;;;;;;;;;4966644;28;20047;-60
2022/11/19 15:29:17;;;;;;;2.38;1.40;;;;;;;;;;5037807;28;20099;-60
2022/11/19 15:31:57;;;;;;;2.20;1.45;;;;;;;;;;5064133;28;20044;-63
2022/11/19 15:34:46;;;;;;;2.85;1.30;;;;;;;;;;5068071;28;20421;-62
2022/11/19 15:37:46;;;;;;;2.47;1.27;;;;;;;;;;5068944;28;20060;-63
2022/11/19 15:40:16;;;;;;;1.90;1.00;;;;;;;;;;5069754;28;20480;-63
2022/11/19 15:42:53;;;;;;;1.50;1.08;;;;;;;;;;5068676;28;20131;-63
2022/11/19 15:45:22;;;;;;;1.42;1.15;;;;;;;;;;5060975;28;20114;-62
2022/11/19 15:48:25;;;;;;;1.83;0.95;;;;;;;;;;5067591;28;20139;-62
2022/11/19 15:51:00;;;;;;;7.68;1.75;;;;;;;;;;5067675;28;20452;-56
2022/11/19 15:53:34;;;;;;;2.47;1.17;;;;;;;;;;5064139;28;20054;-49
2022/11/19 15:56:03;;;;;;;2.78;1.38;;;;;;;;;;5066448;28;20049;-49
2022/11/19 15:58:38;;;;;;;2.38;1.13;;;;;;;;;;5064221;28;20052;-52
2022/11/19 16:01:07;;;;;;;2.08;1.25;;;;;;;;;;5069811;28;20048;-52